sensor_id;sensor_type;location;lat;lon;timestamp;P1;durP1;ratioP1;P2;durP2;ratioP2
56493;SDS011;42392;42.648;27.652;2024-03-29T00:00:03;61.47;;;10.70;;
56493;SDS011;42392;42.648;27.652;2024-03-29T00:02:05;44.92;;;7.78;;
56493;SDS011;42392;42.648;27.652;2024-03-29T00:04:06;52.63;;;8.38;;
56493;SDS011;42392;42.648;27.652;2024-03-29T00:06:07;46.30;;;8.20;;
56493;SDS011;42392;42.648;27.652;2024-03-29T00:08:08;49.28;;;7.80;;
56493;SDS011;42392;42.648;27.652;2024-03-29T00:10:09;46.90;;;9.57;;
56493;SDS011;42392;42.648;27.652;2024-03-29T00:12:10;42.35;;;7.20;;
56493;SDS011;42392;42.648;27.652;2024-03-29T00:14:11;50.58;;;9.80;;
56493;SDS011;42392;42.648;27.652;2024-03-29T00:16:11;47.88;;;9.77;;
56493;SDS011;42392;42.648;27.652;2024-03-29T00:18:13;58.80;;;11.32;;
56493;SDS011;42392;42.648;27.652;2024-03-29T00:20:14;51.40;;;9.85;;
56493;SDS011;42392;42.648;27.652;2024-03-29T00:22:15;52.70;;;8.98;;
56493;SDS011;42392;42.648;27.652;2024-03-29T00:24:16;53.50;;;8.68;;
56493;SDS011;42392;42.648;27.652;2024-03-29T00:26:17;45.75;;;8.20;;
56493;SDS011;42392;42.648;27.652;2024-03-29T00:28:18;55.08;;;8.20;;
56493;SDS011;42392;42.648;27.652;2024-03-29T00:30:19;41.63;;;8.80;;
56493;SDS011;42392;42.648;27.652;2024-03-29T00:32:20;60.97;;;9.48;;
56493;SDS011;42392;42.648;27.652;2024-03-29T00:34:24;46.25;;;9.00;;
56493;SDS011;42392;42.648;27.652;2024-03-29T00:36:25;53.08;;;8.82;;
56493;SDS011;42392;42.648;27.652;2024-03-29T00:38:26;49.75;;;8.75;;
56493;SDS011;42392;42.648;27.652;2024-03-29T00:40:27;51.35;;;8.20;;
56493;SDS011;42392;42.648;27.652;2024-03-29T00:42:28;47.40;;;8.52;;
56493;SDS011;42392;42.648;27.652;2024-03-29T00:44:29;44.78;;;7.80;;
56493;SDS011;42392;42.648;27.652;2024-03-29T00:46:30;40.90;;;7.38;;
56493;SDS011;42392;42.648;27.652;2024-03-29T00:48:31;46.08;;;7.00;;
56493;SDS011;42392;42.648;27.652;2024-03-29T00:50:32;46.42;;;8.10;;
56493;SDS011;42392;42.648;27.652;2024-03-29T00:52:33;41.47;;;7.90;;
56493;SDS011;42392;42.648;27.652;2024-03-29T00:54:33;38.88;;;7.30;;
56493;SDS011;42392;42.648;27.652;2024-03-29T00:56:34;41.67;;;5.68;;
56493;SDS011;42392;42.648;27.652;2024-03-29T00:58:35;45.65;;;7.05;;
56493;SDS011;42392;42.648;27.652;2024-03-29T01:00:36;26.30;;;5.28;;
56493;SDS011;42392;42.648;27.652;2024-03-29T01:02:37;38.22;;;7.75;;
56493;SDS011;42392;42.648;27.652;2024-03-29T01:04:38;42.45;;;7.70;;
56493;SDS011;42392;42.648;27.652;2024-03-29T01:06:40;50.20;;;7.15;;
56493;SDS011;42392;42.648;27.652;2024-03-29T01:08:41;46.08;;;6.13;;
56493;SDS011;42392;42.648;27.652;2024-03-29T01:10:42;41.60;;;7.80;;
56493;SDS011;42392;42.648;27.652;2024-03-29T01:12:43;40.38;;;6.78;;
56493;SDS011;42392;42.648;27.652;2024-03-29T01:14:46;36.63;;;6.60;;
56493;SDS011;42392;42.648;27.652;2024-03-29T01:16:47;35.17;;;7.38;;
56493;SDS011;42392;42.648;27.652;2024-03-29T01:18:48;37.65;;;7.00;;
56493;SDS011;42392;42.648;27.652;2024-03-29T01:20:49;30.38;;;5.28;;
56493;SDS011;42392;42.648;27.652;2024-03-29T01:22:50;49.25;;;7.20;;
56493;SDS011;42392;42.648;27.652;2024-03-29T01:24:51;42.47;;;6.30;;
56493;SDS011;42392;42.648;27.652;2024-03-29T01:26:52;40.92;;;7.32;;
56493;SDS011;42392;42.648;27.652;2024-03-29T01:28:54;38.63;;;6.53;;
56493;SDS011;42392;42.648;27.652;2024-03-29T01:30:55;42.75;;;6.82;;
56493;SDS011;42392;42.648;27.652;2024-03-29T01:32:58;45.90;;;6.43;;
56493;SDS011;42392;42.648;27.652;2024-03-29T01:34:59;30.23;;;6.35;;
56493;SDS011;42392;42.648;27.652;2024-03-29T01:37:00;39.78;;;7.05;;
56493;SDS011;42392;42.648;27.652;2024-03-29T01:39:01;39.08;;;6.95;;
56493;SDS011;42392;42.648;27.652;2024-03-29T01:41:02;34.85;;;6.30;;
56493;SDS011;42392;42.648;27.652;2024-03-29T01:43:04;34.55;;;6.88;;
56493;SDS011;42392;42.648;27.652;2024-03-29T01:45:05;38.83;;;6.80;;
56493;SDS011;42392;42.648;27.652;2024-03-29T01:47:08;38.35;;;7.18;;
56493;SDS011;42392;42.648;27.652;2024-03-29T01:49:09;38.53;;;6.78;;
56493;SDS011;42392;42.648;27.652;2024-03-29T01:51:10;36.65;;;6.07;;
56493;SDS011;42392;42.648;27.652;2024-03-29T01:53:13;47.00;;;7.43;;
56493;SDS011;42392;42.648;27.652;2024-03-29T01:55:16;37.28;;;6.95;;
56493;SDS011;42392;42.648;27.652;2024-03-29T01:57:17;43.75;;;8.20;;
56493;SDS011;42392;42.648;27.652;2024-03-29T01:59:18;41.08;;;7.90;;
56493;SDS011;42392;42.648;27.652;2024-03-29T02:01:19;43.58;;;7.18;;
56493;SDS011;42392;42.648;27.652;2024-03-29T02:03:21;50.42;;;7.93;;
56493;SDS011;42392;42.648;27.652;2024-03-29T02:05:22;35.80;;;7.78;;
56493;SDS011;42392;42.648;27.652;2024-03-29T02:07:37;33.30;;;7.13;;
56493;SDS011;42392;42.648;27.652;2024-03-29T02:09:38;36.75;;;7.90;;
56493;SDS011;42392;42.648;27.652;2024-03-29T02:11:39;42.00;;;7.40;;
56493;SDS011;42392;42.648;27.652;2024-03-29T02:13:40;38.20;;;7.07;;
56493;SDS011;42392;42.648;27.652;2024-03-29T02:15:41;42.25;;;8.68;;
56493;SDS011;42392;42.648;27.652;2024-03-29T02:17:42;42.53;;;8.02;;
56493;SDS011;42392;42.648;27.652;2024-03-29T02:19:44;37.55;;;7.95;;
56493;SDS011;42392;42.648;27.652;2024-03-29T02:21:45;45.00;;;7.93;;
56493;SDS011;42392;42.648;27.652;2024-03-29T02:23:56;47.20;;;8.95;;
56493;SDS011;42392;42.648;27.652;2024-03-29T02:26:05;46.05;;;10.05;;
56493;SDS011;42392;42.648;27.652;2024-03-29T02:28:06;45.13;;;9.02;;
56493;SDS011;42392;42.648;27.652;2024-03-29T02:30:08;54.83;;;10.02;;
56493;SDS011;42392;42.648;27.652;2024-03-29T02:32:12;46.95;;;7.72;;
56493;SDS011;42392;42.648;27.652;2024-03-29T02:34:13;41.22;;;7.68;;
56493;SDS011;42392;42.648;27.652;2024-03-29T02:36:15;51.90;;;9.23;;
56493;SDS011;42392;42.648;27.652;2024-03-29T02:38:16;42.85;;;8.73;;
56493;SDS011;42392;42.648;27.652;2024-03-29T02:40:17;43.67;;;9.57;;
56493;SDS011;42392;42.648;27.652;2024-03-29T02:42:22;41.47;;;8.40;;
56493;SDS011;42392;42.648;27.652;2024-03-29T02:44:23;42.42;;;8.93;;
56493;SDS011;42392;42.648;27.652;2024-03-29T02:46:24;39.20;;;8.85;;
56493;SDS011;42392;42.648;27.652;2024-03-29T02:48:25;40.13;;;8.50;;
56493;SDS011;42392;42.648;27.652;2024-03-29T02:50:26;45.88;;;7.38;;
56493;SDS011;42392;42.648;27.652;2024-03-29T02:52:27;51.50;;;9.60;;
56493;SDS011;42392;42.648;27.652;2024-03-29T02:54:29;47.25;;;9.80;;
56493;SDS011;42392;42.648;27.652;2024-03-29T02:56:30;51.72;;;9.93;;
56493;SDS011;42392;42.648;27.652;2024-03-29T02:58:31;44.60;;;8.98;;
56493;SDS011;42392;42.648;27.652;2024-03-29T03:00:32;50.13;;;9.25;;
56493;SDS011;42392;42.648;27.652;2024-03-29T03:02:37;46.45;;;8.20;;
56493;SDS011;42392;42.648;27.652;2024-03-29T03:04:40;46.00;;;9.00;;
56493;SDS011;42392;42.648;27.652;2024-03-29T03:06:41;45.05;;;8.43;;
56493;SDS011;42392;42.648;27.652;2024-03-29T03:08:43;38.45;;;8.88;;
56493;SDS011;42392;42.648;27.652;2024-03-29T03:11:03;48.25;;;8.95;;
56493;SDS011;42392;42.648;27.652;2024-03-29T03:13:05;53.63;;;10.38;;
56493;SDS011;42392;42.648;27.652;2024-03-29T03:15:06;43.05;;;9.85;;
56493;SDS011;42392;42.648;27.652;2024-03-29T03:17:07;45.78;;;10.23;;
56493;SDS011;42392;42.648;27.652;2024-03-29T03:19:08;48.17;;;10.20;;
56493;SDS011;42392;42.648;27.652;2024-03-29T03:21:09;64.82;;;11.88;;
56493;SDS011;42392;42.648;27.652;2024-03-29T03:23:10;53.33;;;10.57;;
56493;SDS011;42392;42.648;27.652;2024-03-29T03:25:11;51.10;;;10.25;;
56493;SDS011;42392;42.648;27.652;2024-03-29T03:27:12;55.15;;;11.68;;
56493;SDS011;42392;42.648;27.652;2024-03-29T03:29:13;48.50;;;9.63;;
56493;SDS011;42392;42.648;27.652;2024-03-29T03:31:14;44.65;;;11.15;;
56493;SDS011;42392;42.648;27.652;2024-03-29T03:33:15;51.15;;;10.57;;
56493;SDS011;42392;42.648;27.652;2024-03-29T03:35:16;61.38;;;9.55;;
56493;SDS011;42392;42.648;27.652;2024-03-29T03:37:17;46.47;;;10.13;;
56493;SDS011;42392;42.648;27.652;2024-03-29T03:39:18;57.22;;;9.68;;
56493;SDS011;42392;42.648;27.652;2024-03-29T03:41:19;45.30;;;10.18;;
56493;SDS011;42392;42.648;27.652;2024-03-29T03:43:20;56.55;;;11.52;;
56493;SDS011;42392;42.648;27.652;2024-03-29T03:45:22;53.28;;;10.18;;
56493;SDS011;42392;42.648;27.652;2024-03-29T03:47:23;51.63;;;11.65;;
56493;SDS011;42392;42.648;27.652;2024-03-29T03:49:24;50.05;;;11.35;;
56493;SDS011;42392;42.648;27.652;2024-03-29T03:51:25;52.22;;;13.07;;
56493;SDS011;42392;42.648;27.652;2024-03-29T03:53:26;52.78;;;11.40;;
56493;SDS011;42392;42.648;27.652;2024-03-29T03:55:27;58.75;;;11.50;;
56493;SDS011;42392;42.648;27.652;2024-03-29T03:57:28;51.15;;;10.35;;
56493;SDS011;42392;42.648;27.652;2024-03-29T03:59:29;112.85;;;35.30;;
56493;SDS011;42392;42.648;27.652;2024-03-29T04:01:30;62.00;;;15.07;;
56493;SDS011;42392;42.648;27.652;2024-03-29T04:03:31;54.80;;;13.02;;
56493;SDS011;42392;42.648;27.652;2024-03-29T04:05:32;62.25;;;16.70;;
56493;SDS011;42392;42.648;27.652;2024-03-29T04:07:32;65.50;;;22.05;;
56493;SDS011;42392;42.648;27.652;2024-03-29T04:09:33;59.35;;;12.30;;
56493;SDS011;42392;42.648;27.652;2024-03-29T04:11:34;55.10;;;14.57;;
56493;SDS011;42392;42.648;27.652;2024-03-29T04:13:35;66.45;;;20.30;;
56493;SDS011;42392;42.648;27.652;2024-03-29T04:15:38;62.88;;;18.77;;
56493;SDS011;42392;42.648;27.652;2024-03-29T04:17:39;65.05;;;15.68;;
56493;SDS011;42392;42.648;27.652;2024-03-29T04:19:40;53.63;;;14.13;;
56493;SDS011;42392;42.648;27.652;2024-03-29T04:21:42;64.15;;;14.23;;
56493;SDS011;42392;42.648;27.652;2024-03-29T04:23:42;60.80;;;15.75;;
56493;SDS011;42392;42.648;27.652;2024-03-29T04:25:51;79.03;;;20.85;;
56493;SDS011;42392;42.648;27.652;2024-03-29T04:27:58;56.72;;;20.20;;
56493;SDS011;42392;42.648;27.652;2024-03-29T04:29:59;63.28;;;18.48;;
56493;SDS011;42392;42.648;27.652;2024-03-29T04:32:00;60.10;;;17.67;;
56493;SDS011;42392;42.648;27.652;2024-03-29T04:34:01;45.35;;;12.77;;
56493;SDS011;42392;42.648;27.652;2024-03-29T04:36:02;57.03;;;10.85;;
56493;SDS011;42392;42.648;27.652;2024-03-29T04:38:04;50.90;;;10.32;;
56493;SDS011;42392;42.648;27.652;2024-03-29T04:40:05;52.05;;;11.52;;
56493;SDS011;42392;42.648;27.652;2024-03-29T04:42:07;67.05;;;16.30;;
56493;SDS011;42392;42.648;27.652;2024-03-29T04:44:08;70.50;;;19.63;;
56493;SDS011;42392;42.648;27.652;2024-03-29T04:46:12;69.45;;;17.95;;
56493;SDS011;42392;42.648;27.652;2024-03-29T04:48:14;58.42;;;15.98;;
56493;SDS011;42392;42.648;27.652;2024-03-29T04:50:15;53.58;;;13.30;;
56493;SDS011;42392;42.648;27.652;2024-03-29T04:52:16;62.50;;;15.55;;
56493;SDS011;42392;42.648;27.652;2024-03-29T04:54:17;56.90;;;16.88;;
56493;SDS011;42392;42.648;27.652;2024-03-29T04:56:18;52.70;;;16.65;;
56493;SDS011;42392;42.648;27.652;2024-03-29T04:58:20;59.80;;;16.58;;
56493;SDS011;42392;42.648;27.652;2024-03-29T05:00:22;67.43;;;17.55;;
56493;SDS011;42392;42.648;27.652;2024-03-29T05:02:23;65.05;;;18.08;;
56493;SDS011;42392;42.648;27.652;2024-03-29T05:04:24;64.35;;;20.15;;
56493;SDS011;42392;42.648;27.652;2024-03-29T05:06:26;56.17;;;16.63;;
56493;SDS011;42392;42.648;27.652;2024-03-29T05:08:27;61.95;;;17.50;;
56493;SDS011;42392;42.648;27.652;2024-03-29T05:10:28;54.55;;;14.95;;
56493;SDS011;42392;42.648;27.652;2024-03-29T05:12:29;68.13;;;18.60;;
56493;SDS011;42392;42.648;27.652;2024-03-29T05:14:30;66.15;;;21.75;;
56493;SDS011;42392;42.648;27.652;2024-03-29T05:16:31;66.30;;;20.40;;
56493;SDS011;42392;42.648;27.652;2024-03-29T05:18:32;82.28;;;21.75;;
56493;SDS011;42392;42.648;27.652;2024-03-29T05:20:33;60.83;;;18.75;;
56493;SDS011;42392;42.648;27.652;2024-03-29T05:22:34;58.00;;;14.38;;
56493;SDS011;42392;42.648;27.652;2024-03-29T05:24:35;57.78;;;13.73;;
56493;SDS011;42392;42.648;27.652;2024-03-29T05:26:36;96.07;;;46.67;;
56493;SDS011;42392;42.648;27.652;2024-03-29T05:28:37;78.18;;;30.73;;
56493;SDS011;42392;42.648;27.652;2024-03-29T05:30:38;56.20;;;12.68;;
56493;SDS011;42392;42.648;27.652;2024-03-29T05:32:39;58.95;;;13.73;;
56493;SDS011;42392;42.648;27.652;2024-03-29T05:34:40;47.88;;;12.45;;
56493;SDS011;42392;42.648;27.652;2024-03-29T05:36:41;53.67;;;10.00;;
56493;SDS011;42392;42.648;27.652;2024-03-29T05:38:44;55.35;;;10.38;;
56493;SDS011;42392;42.648;27.652;2024-03-29T05:40:46;49.55;;;12.63;;
56493;SDS011;42392;42.648;27.652;2024-03-29T05:42:47;63.05;;;14.32;;
56493;SDS011;42392;42.648;27.652;2024-03-29T05:44:48;53.40;;;12.32;;
56493;SDS011;42392;42.648;27.652;2024-03-29T05:46:49;47.08;;;9.05;;
56493;SDS011;42392;42.648;27.652;2024-03-29T05:48:50;54.17;;;15.32;;
56493;SDS011;42392;42.648;27.652;2024-03-29T05:50:51;40.38;;;9.40;;
56493;SDS011;42392;42.648;27.652;2024-03-29T05:52:52;44.72;;;8.90;;
56493;SDS011;42392;42.648;27.652;2024-03-29T05:54:53;50.05;;;10.85;;
56493;SDS011;42392;42.648;27.652;2024-03-29T05:56:54;43.70;;;9.23;;
56493;SDS011;42392;42.648;27.652;2024-03-29T05:58:55;51.35;;;9.55;;
56493;SDS011;42392;42.648;27.652;2024-03-29T06:00:56;53.83;;;9.90;;
56493;SDS011;42392;42.648;27.652;2024-03-29T06:02:58;38.05;;;8.75;;
56493;SDS011;42392;42.648;27.652;2024-03-29T06:04:59;39.45;;;8.38;;
56493;SDS011;42392;42.648;27.652;2024-03-29T06:07:00;39.17;;;8.32;;
56493;SDS011;42392;42.648;27.652;2024-03-29T06:09:05;30.35;;;5.97;;
56493;SDS011;42392;42.648;27.652;2024-03-29T06:11:06;41.22;;;7.57;;
56493;SDS011;42392;42.648;27.652;2024-03-29T06:13:07;39.55;;;8.57;;
56493;SDS011;42392;42.648;27.652;2024-03-29T06:15:11;44.10;;;8.60;;
56493;SDS011;42392;42.648;27.652;2024-03-29T06:17:31;30.00;;;5.32;;
56493;SDS011;42392;42.648;27.652;2024-03-29T06:19:32;51.55;;;10.13;;
56493;SDS011;42392;42.648;27.652;2024-03-29T06:21:33;43.85;;;9.07;;
56493;SDS011;42392;42.648;27.652;2024-03-29T06:23:40;21.98;;;5.07;;
56493;SDS011;42392;42.648;27.652;2024-03-29T06:25:41;33.88;;;6.07;;
56493;SDS011;42392;42.648;27.652;2024-03-29T06:27:42;53.67;;;9.85;;
56493;SDS011;42392;42.648;27.652;2024-03-29T06:29:49;33.10;;;5.72;;
56493;SDS011;42392;42.648;27.652;2024-03-29T06:31:51;50.55;;;7.75;;
56493;SDS011;42392;42.648;27.652;2024-03-29T06:33:52;44.22;;;8.10;;
56493;SDS011;42392;42.648;27.652;2024-03-29T06:35:54;34.33;;;6.88;;
56493;SDS011;42392;42.648;27.652;2024-03-29T06:37:56;34.72;;;7.65;;
56493;SDS011;42392;42.648;27.652;2024-03-29T06:39:58;35.10;;;6.55;;
56493;SDS011;42392;42.648;27.652;2024-03-29T06:41:59;22.27;;;5.30;;
56493;SDS011;42392;42.648;27.652;2024-03-29T06:43:59;30.40;;;5.65;;
56493;SDS011;42392;42.648;27.652;2024-03-29T06:46:01;38.40;;;7.28;;
56493;SDS011;42392;42.648;27.652;2024-03-29T06:48:03;31.02;;;6.40;;
56493;SDS011;42392;42.648;27.652;2024-03-29T06:50:05;31.23;;;7.15;;
56493;SDS011;42392;42.648;27.652;2024-03-29T06:52:06;31.17;;;5.85;;
56493;SDS011;42392;42.648;27.652;2024-03-29T06:54:07;21.02;;;4.57;;
56493;SDS011;42392;42.648;27.652;2024-03-29T06:56:08;45.95;;;8.88;;
56493;SDS011;42392;42.648;27.652;2024-03-29T06:58:09;42.42;;;9.73;;
56493;SDS011;42392;42.648;27.652;2024-03-29T07:00:10;32.17;;;7.80;;
56493;SDS011;42392;42.648;27.652;2024-03-29T07:02:12;29.45;;;6.30;;
56493;SDS011;42392;42.648;27.652;2024-03-29T07:04:13;36.90;;;6.32;;
56493;SDS011;42392;42.648;27.652;2024-03-29T07:06:14;21.77;;;5.57;;
56493;SDS011;42392;42.648;27.652;2024-03-29T07:08:16;37.25;;;6.93;;
56493;SDS011;42392;42.648;27.652;2024-03-29T07:10:17;44.20;;;6.90;;
56493;SDS011;42392;42.648;27.652;2024-03-29T07:12:18;35.47;;;6.68;;
56493;SDS011;42392;42.648;27.652;2024-03-29T07:14:19;40.33;;;6.40;;
56493;SDS011;42392;42.648;27.652;2024-03-29T07:16:20;36.28;;;6.60;;
56493;SDS011;42392;42.648;27.652;2024-03-29T07:18:21;31.77;;;5.38;;
56493;SDS011;42392;42.648;27.652;2024-03-29T07:20:22;17.13;;;3.75;;
56493;SDS011;42392;42.648;27.652;2024-03-29T07:22:23;24.63;;;5.15;;
56493;SDS011;42392;42.648;27.652;2024-03-29T07:24:24;25.67;;;5.30;;
56493;SDS011;42392;42.648;27.652;2024-03-29T07:26:25;23.73;;;5.10;;
56493;SDS011;42392;42.648;27.652;2024-03-29T07:28:26;35.28;;;6.38;;
56493;SDS011;42392;42.648;27.652;2024-03-29T07:30:28;33.53;;;7.45;;
56493;SDS011;42392;42.648;27.652;2024-03-29T07:32:29;30.90;;;5.10;;
56493;SDS011;42392;42.648;27.652;2024-03-29T07:34:32;32.80;;;6.30;;
56493;SDS011;42392;42.648;27.652;2024-03-29T07:36:33;20.92;;;4.00;;
56493;SDS011;42392;42.648;27.652;2024-03-29T07:38:36;16.77;;;2.53;;
56493;SDS011;42392;42.648;27.652;2024-03-29T07:40:41;12.40;;;2.13;;
56493;SDS011;42392;42.648;27.652;2024-03-29T07:42:42;12.32;;;2.42;;
56493;SDS011;42392;42.648;27.652;2024-03-29T07:44:43;8.70;;;1.58;;
56493;SDS011;42392;42.648;27.652;2024-03-29T07:46:44;19.25;;;7.75;;
56493;SDS011;42392;42.648;27.652;2024-03-29T07:48:47;21.30;;;7.32;;
56493;SDS011;42392;42.648;27.652;2024-03-29T07:50:49;20.23;;;6.82;;
56493;SDS011;42392;42.648;27.652;2024-03-29T07:52:50;19.17;;;6.40;;
56493;SDS011;42392;42.648;27.652;2024-03-29T07:54:51;10.05;;;3.33;;
56493;SDS011;42392;42.648;27.652;2024-03-29T07:56:52;13.40;;;4.93;;
56493;SDS011;42392;42.648;27.652;2024-03-29T07:58:53;29.13;;;11.82;;
56493;SDS011;42392;42.648;27.652;2024-03-29T08:00:55;9.57;;;2.28;;
56493;SDS011;42392;42.648;27.652;2024-03-29T08:02:56;16.13;;;6.18;;
56493;SDS011;42392;42.648;27.652;2024-03-29T08:04:57;12.25;;;4.50;;
56493;SDS011;42392;42.648;27.652;2024-03-29T08:06:59;4.45;;;1.60;;
56493;SDS011;42392;42.648;27.652;2024-03-29T08:09:00;9.68;;;3.97;;
56493;SDS011;42392;42.648;27.652;2024-03-29T08:11:01;6.43;;;2.25;;
56493;SDS011;42392;42.648;27.652;2024-03-29T08:13:02;4.22;;;1.20;;
56493;SDS011;42392;42.648;27.652;2024-03-29T08:15:03;7.68;;;2.17;;
56493;SDS011;42392;42.648;27.652;2024-03-29T08:17:05;9.40;;;3.13;;
56493;SDS011;42392;42.648;27.652;2024-03-29T08:19:09;19.73;;;9.03;;
56493;SDS011;42392;42.648;27.652;2024-03-29T08:21:10;4.80;;;1.10;;
56493;SDS011;42392;42.648;27.652;2024-03-29T08:23:14;10.95;;;2.70;;
56493;SDS011;42392;42.648;27.652;2024-03-29T08:25:15;12.70;;;5.32;;
56493;SDS011;42392;42.648;27.652;2024-03-29T08:27:16;8.90;;;2.53;;
56493;SDS011;42392;42.648;27.652;2024-03-29T08:29:17;8.70;;;1.67;;
56493;SDS011;42392;42.648;27.652;2024-03-29T08:31:18;2.67;;;0.50;;
56493;SDS011;42392;42.648;27.652;2024-03-29T08:33:19;5.70;;;2.45;;
56493;SDS011;42392;42.648;27.652;2024-03-29T08:35:22;5.45;;;2.10;;
56493;SDS011;42392;42.648;27.652;2024-03-29T08:37:23;3.25;;;1.10;;
56493;SDS011;42392;42.648;27.652;2024-03-29T08:39:24;3.50;;;0.70;;
56493;SDS011;42392;42.648;27.652;2024-03-29T08:41:25;4.78;;;0.80;;
56493;SDS011;42392;42.648;27.652;2024-03-29T08:43:26;7.05;;;0.73;;
56493;SDS011;42392;42.648;27.652;2024-03-29T08:45:27;4.82;;;0.55;;
56493;SDS011;42392;42.648;27.652;2024-03-29T08:47:28;5.47;;;0.77;;
56493;SDS011;42392;42.648;27.652;2024-03-29T08:49:29;4.38;;;0.73;;
56493;SDS011;42392;42.648;27.652;2024-03-29T08:51:30;6.22;;;1.25;;
56493;SDS011;42392;42.648;27.652;2024-03-29T08:53:31;3.15;;;0.80;;
56493;SDS011;42392;42.648;27.652;2024-03-29T08:55:33;4.97;;;0.52;;
56493;SDS011;42392;42.648;27.652;2024-03-29T08:57:34;4.68;;;0.50;;
56493;SDS011;42392;42.648;27.652;2024-03-29T08:59:35;4.72;;;0.70;;
56493;SDS011;42392;42.648;27.652;2024-03-29T09:01:37;3.25;;;0.70;;
56493;SDS011;42392;42.648;27.652;2024-03-29T09:03:42;8.02;;;1.63;;
56493;SDS011;42392;42.648;27.652;2024-03-29T09:05:43;4.25;;;1.30;;
56493;SDS011;42392;42.648;27.652;2024-03-29T09:07:44;8.93;;;2.38;;
56493;SDS011;42392;42.648;27.652;2024-03-29T09:09:46;4.38;;;0.85;;
56493;SDS011;42392;42.648;27.652;2024-03-29T09:11:47;4.45;;;1.20;;
56493;SDS011;42392;42.648;27.652;2024-03-29T09:13:48;7.22;;;2.38;;
56493;SDS011;42392;42.648;27.652;2024-03-29T09:15:49;10.80;;;3.22;;
56493;SDS011;42392;42.648;27.652;2024-03-29T09:17:50;10.25;;;4.10;;
56493;SDS011;42392;42.648;27.652;2024-03-29T09:19:54;11.40;;;3.93;;
56493;SDS011;42392;42.648;27.652;2024-03-29T09:21:55;7.80;;;2.97;;
56493;SDS011;42392;42.648;27.652;2024-03-29T09:23:56;7.63;;;2.33;;
56493;SDS011;42392;42.648;27.652;2024-03-29T09:25:57;8.55;;;2.58;;
56493;SDS011;42392;42.648;27.652;2024-03-29T09:27:58;7.00;;;2.72;;
56493;SDS011;42392;42.648;27.652;2024-03-29T09:29:59;5.22;;;1.10;;
56493;SDS011;42392;42.648;27.652;2024-03-29T09:32:00;5.20;;;0.90;;
56493;SDS011;42392;42.648;27.652;2024-03-29T09:34:04;11.52;;;5.22;;
56493;SDS011;42392;42.648;27.652;2024-03-29T09:36:05;6.82;;;1.55;;
56493;SDS011;42392;42.648;27.652;2024-03-29T09:38:07;12.50;;;5.70;;
56493;SDS011;42392;42.648;27.652;2024-03-29T09:40:08;6.13;;;1.17;;
56493;SDS011;42392;42.648;27.652;2024-03-29T09:42:15;10.85;;;4.22;;
56493;SDS011;42392;42.648;27.652;2024-03-29T09:44:17;9.70;;;3.85;;
56493;SDS011;42392;42.648;27.652;2024-03-29T09:46:18;6.25;;;1.55;;
56493;SDS011;42392;42.648;27.652;2024-03-29T09:48:19;9.45;;;4.72;;
56493;SDS011;42392;42.648;27.652;2024-03-29T09:50:21;7.50;;;1.50;;
56493;SDS011;42392;42.648;27.652;2024-03-29T09:52:22;9.95;;;2.42;;
56493;SDS011;42392;42.648;27.652;2024-03-29T09:54:24;10.50;;;4.32;;
56493;SDS011;42392;42.648;27.652;2024-03-29T09:56:25;8.13;;;3.15;;
56493;SDS011;42392;42.648;27.652;2024-03-29T09:58:27;6.43;;;1.80;;
56493;SDS011;42392;42.648;27.652;2024-03-29T10:00:28;5.07;;;1.33;;
56493;SDS011;42392;42.648;27.652;2024-03-29T10:02:30;7.43;;;3.05;;
56493;SDS011;42392;42.648;27.652;2024-03-29T10:04:32;4.95;;;1.50;;
56493;SDS011;42392;42.648;27.652;2024-03-29T10:06:33;5.70;;;2.03;;
56493;SDS011;42392;42.648;27.652;2024-03-29T10:08:35;7.65;;;2.55;;
56493;SDS011;42392;42.648;27.652;2024-03-29T10:10:37;7.57;;;3.38;;
56493;SDS011;42392;42.648;27.652;2024-03-29T10:12:38;6.07;;;1.73;;
56493;SDS011;42392;42.648;27.652;2024-03-29T10:14:46;7.07;;;1.50;;
56493;SDS011;42392;42.648;27.652;2024-03-29T10:16:53;6.03;;;2.05;;
56493;SDS011;42392;42.648;27.652;2024-03-29T10:18:53;5.22;;;1.27;;
56493;SDS011;42392;42.648;27.652;2024-03-29T10:21:07;4.35;;;0.90;;
56493;SDS011;42392;42.648;27.652;2024-03-29T10:23:08;6.72;;;1.20;;
56493;SDS011;42392;42.648;27.652;2024-03-29T10:25:09;3.03;;;0.52;;
56493;SDS011;42392;42.648;27.652;2024-03-29T10:27:11;2.15;;;0.70;;
56493;SDS011;42392;42.648;27.652;2024-03-29T10:29:12;3.47;;;0.70;;
56493;SDS011;42392;42.648;27.652;2024-03-29T10:31:13;5.45;;;0.98;;
56493;SDS011;42392;42.648;27.652;2024-03-29T10:33:16;2.95;;;0.60;;
56493;SDS011;42392;42.648;27.652;2024-03-29T10:35:17;4.05;;;0.47;;
56493;SDS011;42392;42.648;27.652;2024-03-29T10:37:20;5.55;;;1.30;;
56493;SDS011;42392;42.648;27.652;2024-03-29T10:39:30;4.78;;;0.93;;
56493;SDS011;42392;42.648;27.652;2024-03-29T10:41:34;4.47;;;1.30;;
56493;SDS011;42392;42.648;27.652;2024-03-29T10:43:35;5.28;;;1.23;;
56493;SDS011;42392;42.648;27.652;2024-03-29T10:45:36;6.15;;;0.80;;
56493;SDS011;42392;42.648;27.652;2024-03-29T10:47:38;5.13;;;1.13;;
56493;SDS011;42392;42.648;27.652;2024-03-29T10:49:44;7.43;;;1.15;;
56493;SDS011;42392;42.648;27.652;2024-03-29T10:51:50;12.95;;;1.92;;
56493;SDS011;42392;42.648;27.652;2024-03-29T10:53:51;16.80;;;2.55;;
56493;SDS011;42392;42.648;27.652;2024-03-29T10:55:53;10.30;;;2.05;;
56493;SDS011;42392;42.648;27.652;2024-03-29T10:57:55;15.18;;;3.58;;
56493;SDS011;42392;42.648;27.652;2024-03-29T11:00:16;15.73;;;4.20;;
56493;SDS011;42392;42.648;27.652;2024-03-29T11:02:33;7.53;;;1.58;;
56493;SDS011;42392;42.648;27.652;2024-03-29T11:04:49;9.00;;;1.80;;
56493;SDS011;42392;42.648;27.652;2024-03-29T11:06:51;12.27;;;2.25;;
56493;SDS011;42392;42.648;27.652;2024-03-29T11:08:55;5.07;;;1.08;;
56493;SDS011;42392;42.648;27.652;2024-03-29T11:10:58;13.63;;;2.30;;
56493;SDS011;42392;42.648;27.652;2024-03-29T11:15:22;13.05;;;2.53;;
56493;SDS011;42392;42.648;27.652;2024-03-29T11:17:31;15.02;;;2.40;;
56493;SDS011;42392;42.648;27.652;2024-03-29T11:19:32;6.85;;;1.52;;
56493;SDS011;42392;42.648;27.652;2024-03-29T11:21:33;10.85;;;2.20;;
56493;SDS011;42392;42.648;27.652;2024-03-29T11:23:34;6.35;;;1.30;;
56493;SDS011;42392;42.648;27.652;2024-03-29T11:25:42;10.15;;;2.22;;
56493;SDS011;42392;42.648;27.652;2024-03-29T11:29:54;7.40;;;1.30;;
56493;SDS011;42392;42.648;27.652;2024-03-29T11:31:57;5.90;;;0.93;;
56493;SDS011;42392;42.648;27.652;2024-03-29T11:33:59;11.55;;;1.85;;
56493;SDS011;42392;42.648;27.652;2024-03-29T11:38:30;9.60;;;1.80;;
56493;SDS011;42392;42.648;27.652;2024-03-29T11:40:33;4.13;;;0.85;;
56493;SDS011;42392;42.648;27.652;2024-03-29T11:42:35;9.90;;;1.65;;
56493;SDS011;42392;42.648;27.652;2024-03-29T11:44:53;9.32;;;1.50;;
56493;SDS011;42392;42.648;27.652;2024-03-29T11:46:57;9.88;;;1.60;;
56493;SDS011;42392;42.648;27.652;2024-03-29T11:51:01;7.57;;;1.90;;
56493;SDS011;42392;42.648;27.652;2024-03-29T11:53:08;5.35;;;0.85;;
56493;SDS011;42392;42.648;27.652;2024-03-29T11:55:09;9.18;;;1.17;;
56493;SDS011;42392;42.648;27.652;2024-03-29T11:57:10;5.95;;;1.48;;
56493;SDS011;42392;42.648;27.652;2024-03-29T11:59:11;5.82;;;1.42;;
56493;SDS011;42392;42.648;27.652;2024-03-29T12:01:13;6.47;;;1.08;;